Time;durP1;ratioP1;P1;durP2;ratioP2;P2;SDS_P1;SDS_P2;PMS_P1;PMS_P2;Temp;Humidity;BMP_temperature;BMP_pressure;BME280_temperature;BME280_humidity;BME280_pressure;Samples;Min_cycle;Max_cycle;Signal;HPM_P1;HPM_P2
2021/12/14 00:02:17;;;;;;;11.32;8.38;;;;;;;9.15;80.75;102490.38;3580785;40;20096;-64
2021/12/14 00:04:44;;;;;;;9.45;7.43;;;;;;;9.14;80.17;102489.50;3579279;40;20059;-65
2021/12/14 00:07:15;;;;;;;10.43;7.72;;;;;;;9.12;80.42;102480.59;3578543;40;20049;-64
2021/12/14 00:09:44;;;;;;;8.10;7.30;;;;;;;9.15;80.52;102482.31;3577390;40;20096;-64
2021/12/14 00:12:36;;;;;;;8.68;7.63;;;;;;;9.10;80.44;102486.94;3576695;40;20318;-64
2021/12/14 00:15:12;;;;;;;9.20;8.02;;;;;;;9.07;80.73;102475.38;3577482;40;20061;-64
2021/12/14 00:18:00;;;;;;;9.95;7.28;;;;;;;9.11;80.63;102477.97;3581525;40;20056;-64
2021/12/14 00:20:39;;;;;;;7.93;7.13;;;;;;;9.11;80.79;102475.31;3580858;40;20085;-63
2021/12/14 00:25:51;;;;;;;8.85;7.63;;;;;;;9.11;81.52;102491.41;3581687;40;20131;-64
2021/12/14 00:28:30;;;;;;;10.63;8.07;;;;;;;9.09;81.60;102478.00;3568752;40;20061;-64
2021/12/14 00:31:02;;;;;;;10.32;8.25;;;;;;;9.11;81.28;102480.66;3580276;40;20068;-64
2021/12/14 00:33:34;;;;;;;11.43;8.13;;;;;;;9.10;81.14;102484.25;3579801;40;20113;-64
2021/12/14 00:36:06;;;;;;;12.15;8.35;;;;;;;9.12;81.50;102485.97;3577369;40;20045;-64
2021/12/14 00:38:35;;;;;;;11.45;8.57;;;;;;;9.00;81.09;102476.47;3581052;40;20076;-67
2021/12/14 00:41:29;;;;;;;10.93;8.43;;;;;;;9.11;81.60;102486.03;3577332;40;20055;-64
2021/12/14 00:43:56;;;;;;;10.52;8.80;;;;;;;9.09;80.90;102493.22;3580543;40;20052;-64
2021/12/14 00:46:24;;;;;;;10.45;9.13;;;;;;;8.94;81.63;102476.63;3579747;40;20359;-64
2021/12/14 00:48:51;;;;;;;10.68;8.80;;;;;;;9.09;81.67;102512.00;3575555;40;20434;-64
2021/12/14 00:51:26;;;;;;;9.00;8.10;;;;;;;9.10;80.97;102505.72;3582287;40;20087;-64
2021/12/14 00:53:52;;;;;;;12.02;8.70;;;;;;;9.05;81.12;102512.09;3580110;40;20060;-65
2021/12/14 00:56:17;;;;;;;10.88;9.48;;;;;;;9.10;81.71;102527.16;3578550;40;20059;-64
2021/12/14 00:58:44;;;;;;;10.13;7.85;;;;;;;9.08;81.77;102527.22;3581317;40;20068;-64
2021/12/14 01:01:18;;;;;;;11.20;9.40;;;;;;;9.11;81.25;102520.91;3574900;40;20048;-64
2021/12/14 01:03:56;;;;;;;11.63;9.07;;;;;;;9.11;81.72;102528.97;3586018;40;20114;-64
2021/12/14 01:06:28;;;;;;;10.98;8.95;;;;;;;9.09;81.46;102528.97;3581865;40;20053;-64
2021/12/14 01:08:55;;;;;;;14.00;9.25;;;;;;;9.08;81.00;102519.19;3583319;40;20484;-64
2021/12/14 01:11:34;;;;;;;11.70;9.40;;;;;;;9.04;81.56;102504.97;3583380;40;20389;-64
2021/12/14 01:14:17;;;;;;;11.90;9.07;;;;;;;9.08;81.06;102513.81;3582213;40;20309;-66
2021/12/14 01:17:09;;;;;;;10.50;9.15;;;;;;;9.09;80.93;102506.66;3583351;40;20079;-64
2021/12/14 01:19:38;;;;;;;10.38;9.25;;;;;;;9.09;81.78;102509.31;3581344;40;20298;-64
2021/12/14 01:22:32;;;;;;;10.32;9.20;;;;;;;9.06;81.48;102507.59;3581439;40;20089;-64
2021/12/14 01:25:15;;;;;;;12.60;9.45;;;;;;;9.04;80.96;102514.84;3581351;40;20096;-65
2021/12/14 01:27:51;;;;;;;10.40;9.35;;;;;;;9.09;80.91;102506.66;3578868;40;20071;-65
2021/12/14 01:30:33;;;;;;;11.98;9.05;;;;;;;9.06;81.59;102497.75;3580615;40;20397;-65
2021/12/14 01:33:05;;;;;;;11.15;9.43;;;;;;;9.03;80.72;102495.16;3576826;40;20055;-64
2021/12/14 01:35:40;;;;;;;12.18;9.00;;;;;;;8.78;81.35;102454.75;3582265;40;20346;-65
2021/12/14 01:41:09;;;;;;;9.52;8.52;;;;;;;9.02;80.56;102492.53;3579530;40;20048;-64
2021/12/14 01:43:57;;;;;;;10.40;8.25;;;;;;;9.00;80.62;102487.19;3580764;40;20126;-64
2021/12/14 01:46:36;;;;;;;13.02;7.95;;;;;;;9.00;80.49;102489.88;3579860;40;20278;-64
2021/12/14 01:49:08;;;;;;;9.70;7.88;;;;;;;8.98;80.34;102488.19;3579107;40;20060;-65
2021/12/14 01:51:44;;;;;;;10.65;7.55;;;;;;;8.98;80.53;102494.44;3581017;40;20099;-64
2021/12/14 01:54:16;;;;;;;9.75;7.85;;;;;;;8.98;80.28;102504.28;3583632;40;20049;-64
2021/12/14 01:56:42;;;;;;;10.98;7.45;;;;;;;8.97;79.74;102481.03;3582307;40;20306;-64
2021/12/14 01:59:24;;;;;;;8.73;6.90;;;;;;;8.97;80.40;102476.56;3578530;40;20362;-64
2021/12/14 02:02:19;;;;;;;9.57;7.13;;;;;;;8.91;80.18;102466.03;3576379;40;20284;-64
2021/12/14 02:04:48;;;;;;;7.78;6.47;;;;;;;8.95;80.08;102467.69;3578900;40;20063;-65
2021/12/14 02:07:18;;;;;;;8.00;6.28;;;;;;;8.93;79.47;102464.16;3579747;40;20053;-64
2021/12/14 02:09:52;;;;;;;7.90;6.95;;;;;;;8.93;80.06;102449.88;3576210;40;20091;-64
2021/12/14 02:12:24;;;;;;;9.93;6.63;;;;;;;8.93;79.92;102448.06;3577568;40;20093;-65
2021/12/14 02:14:52;;;;;;;8.35;6.55;;;;;;;8.92;79.71;102445.44;3577001;40;20053;-64
2021/12/14 02:17:22;;;;;;;7.60;6.10;;;;;;;8.95;79.57;102456.09;3580619;40;20092;-65
2021/12/14 02:19:50;;;;;;;6.45;5.55;;;;;;;8.70;79.19;102403.16;3578025;40;20052;-64
2021/12/14 02:22:16;;;;;;;7.78;5.47;;;;;;;8.92;79.49;102459.72;3579691;40;20049;-64
2021/12/14 02:24:51;;;;;;;8.40;6.18;;;;;;;8.92;78.91;102456.19;3582369;40;20460;-64
2021/12/14 02:27:17;;;;;;;7.38;5.80;;;;;;;8.89;78.91;102449.09;3576086;40;20093;-64
2021/12/14 02:29:48;;;;;;;7.57;5.70;;;;;;;8.91;78.61;102449.03;3577921;40;20052;-64
2021/12/14 02:32:22;;;;;;;7.80;6.47;;;;;;;8.92;78.86;102462.41;3580110;40;20377;-64
2021/12/14 02:35:00;;;;;;;7.32;6.15;;;;;;;8.92;79.30;102462.41;3578924;40;20063;-65
2021/12/14 02:37:51;;;;;;;7.05;6.20;;;;;;;8.87;79.37;102458.97;3580661;40;20070;-64
2021/12/14 02:40:32;;;;;;;8.15;6.38;;;;;;;8.85;78.55;102463.53;3579829;40;20048;-65
2021/12/14 02:43:03;;;;;;;8.60;6.07;;;;;;;8.89;78.52;102473.22;3577898;40;20358;-64
2021/12/14 02:45:28;;;;;;;7.15;6.00;;;;;;;8.87;78.40;102475.06;3582312;40;20066;-64
2021/12/14 02:47:56;;;;;;;7.22;5.97;;;;;;;8.87;78.84;102474.19;3586074;40;20048;-65
2021/12/14 02:50:24;;;;;;;6.65;5.75;;;;;;;8.86;78.72;102473.31;3581859;40;20048;-64
2021/12/14 02:52:50;;;;;;;8.77;6.20;;;;;;;8.82;78.64;102485.06;3579501;40;20060;-64
2021/12/14 02:55:24;;;;;;;7.90;6.40;;;;;;;8.83;78.60;102479.63;3578110;40;20318;-64
2021/12/14 02:57:58;;;;;;;6.97;6.28;;;;;;;8.53;78.74;102417.03;3580759;40;20052;-64
2021/12/14 03:00:31;;;;;;;;;;;;;;;8.77;79.25;102446.75;3581053;40;20614;-64
2021/12/14 03:03:00;;;;;;;7.57;6.13;;;;;;;8.77;78.60;102442.25;3577611;40;19937;-63
2021/12/14 03:05:33;;;;;;;11.23;6.60;;;;;;;8.78;79.29;102440.47;3578115;40;20056;-65
2021/12/14 03:08:19;;;;;;;7.95;6.05;;;;;;;8.75;79.30;102444.13;3579932;40;20063;-65
2021/12/14 03:10:56;;;;;;;11.63;6.15;;;;;;;8.75;78.37;102444.13;3580854;40;20392;-63
2021/12/14 03:13:32;;;;;;;10.05;6.82;;;;;;;8.77;79.06;102441.38;3577168;40;20370;-63
2021/12/14 03:16:05;;;;;;;8.45;6.22;;;;;;;8.74;79.19;102436.13;3578718;40;20080;-63
2021/12/14 03:18:39;;;;;;;8.98;6.80;;;;;;;8.66;78.74;102412.22;3577371;40;20085;-63
2021/12/14 03:21:11;;;;;;;8.55;6.03;;;;;;;8.75;78.73;102429.81;3581029;40;20056;-63
2021/12/14 03:23:58;;;;;;;8.80;6.63;;;;;;;8.70;78.87;102413.00;3578231;40;20060;-63
2021/12/14 03:26:32;;;;;;;8.75;6.85;;;;;;;8.69;79.56;102412.13;3579210;40;20126;-62
2021/12/14 03:29:07;;;;;;;10.45;7.38;;;;;;;8.69;78.88;102412.13;3578372;40;20387;-63
2021/12/14 03:34:17;;;;;;;12.15;8.30;;;;;;;8.69;79.57;102419.28;3580157;40;20066;-65
2021/12/14 03:36:55;;;;;;;11.95;8.07;;;;;;;8.70;79.17;102423.72;3579161;40;20063;-66
2021/12/14 03:39:39;;;;;;;13.02;8.07;;;;;;;8.68;79.41;102414.84;3579963;40;20048;-66
2021/12/14 03:42:16;;;;;;;11.40;8.52;;;;;;;8.69;79.71;102419.28;3565466;40;20127;-67
2021/12/14 03:44:51;;;;;;;11.07;8.52;;;;;;;8.67;79.24;102408.59;3566258;40;20388;-65
2021/12/14 03:47:35;;;;;;;13.40;9.73;;;;;;;8.65;79.46;102412.25;3569460;40;20064;-67
2021/12/14 03:50:12;;;;;;;12.02;9.35;;;;;;;8.66;79.59;102422.94;3568426;40;20057;-66
2021/12/14 03:52:42;;;;;;;12.75;9.38;;;;;;;8.64;79.45;102435.50;3565439;40;20119;-66
2021/12/14 03:55:27;;;;;;;12.73;9.57;;;;;;;8.50;79.82;102418.91;3570911;40;20064;-64
2021/12/14 03:57:53;;;;;;;18.83;10.57;;;;;;;8.38;79.98;102417.47;3562127;40;20050;-68
2021/12/14 04:00:31;;;;;;;13.23;10.32;;;;;;;8.65;79.60;102466.72;3556688;40;20423;-64
2021/12/14 04:03:04;;;;;;;13.32;10.10;;;;;;;8.68;79.91;102465.78;3562914;40;20726;-65
2021/12/14 04:05:30;;;;;;;14.35;10.68;;;;;;;8.60;80.26;102456.16;3567347;40;20122;-66
2021/12/14 04:07:57;;;;;;;15.82;11.23;;;;;;;8.50;79.89;102449.28;3570043;40;20089;-65
2021/12/14 04:10:29;;;;;;;13.25;10.73;;;;;;;8.50;79.67;102449.28;3569738;40;20061;-64
2021/12/14 04:12:57;;;;;;;15.25;10.63;;;;;;;8.69;79.91;102483.59;3565577;40;20055;-67
2021/12/14 04:15:24;;;;;;;14.70;11.15;;;;;;;8.68;79.75;102473.81;3566374;40;20059;-65
2021/12/14 04:17:50;;;;;;;14.40;12.05;;;;;;;8.65;80.43;102476.59;3571620;40;20053;-66
2021/12/14 04:20:34;;;;;;;14.50;11.88;;;;;;;8.66;79.98;102470.28;3565553;40;20061;-66
2021/12/14 04:23:07;;;;;;;16.13;11.70;;;;;;;8.67;80.26;102464.03;3569911;40;20300;-65
2021/12/14 04:25:35;;;;;;;17.20;12.10;;;;;;;8.59;79.66;102445.47;3568910;40;20134;-65
2021/12/14 04:28:18;;;;;;;16.60;12.32;;;;;;;8.68;79.63;102463.09;3568699;40;20087;-65
2021/12/14 04:30:46;;;;;;;18.80;12.77;;;;;;;8.68;80.26;102471.13;3562733;40;20060;-65
2021/12/14 04:33:21;;;;;;;16.83;12.82;;;;;;;8.68;80.47;102473.81;3568563;40;20055;-66
2021/12/14 04:35:48;;;;;;;17.52;12.65;;;;;;;8.67;80.37;102470.25;3566465;40;20060;-66
2021/12/14 04:38:25;;;;;;;17.20;12.70;;;;;;;8.67;80.54;102469.38;3555329;40;20052;-65
2021/12/14 04:52:17;;;;;;;17.23;13.20;;;;;;;8.64;80.49;102448.91;3564901;40;20064;-66
2021/12/14 04:54:53;;;;;;;16.23;12.50;;;;;;;8.63;79.91;102438.19;3565703;40;20069;-65
2021/12/14 04:57:44;;;;;;;19.92;13.63;;;;;;;8.64;79.87;102439.97;3566280;40;20053;-64
2021/12/14 05:00:29;;;;;;;19.23;14.15;;;;;;;8.64;79.99;102443.53;3566980;40;20053;-66
2021/12/14 05:02:59;;;;;;;18.30;14.07;;;;;;;8.64;80.23;102439.97;3567952;40;20065;-64
2021/12/14 05:05:32;;;;;;;20.95;13.95;;;;;;;8.66;79.63;102438.13;3567952;40;20081;-68
2021/12/14 05:11:03;;;;;;;19.73;14.75;;;;;;;8.62;79.63;102439.13;3571052;40;20049;-64
2021/12/14 05:13:40;;;;;;;17.70;14.10;;;;;;;8.66;80.07;102446.16;3567901;40;20052;-64
2021/12/14 05:16:08;;;;;;;21.02;15.10;;;;;;;8.45;79.84;102405.66;3572634;40;20174;-64
2021/12/14 05:18:35;;;;;;;18.80;13.90;;;;;;;8.65;80.37;102437.25;3567525;40;20137;-66
2021/12/14 05:21:01;;;;;;;18.92;14.68;;;;;;;8.67;79.52;102435.41;3569896;40;20158;-65
2021/12/14 05:23:32;;;;;;;20.95;15.40;;;;;;;8.68;79.49;102436.28;3570406;40;20053;-64
2021/12/14 05:26:02;;;;;;;20.02;15.00;;;;;;;8.68;79.49;102429.13;3569185;40;20041;-65
2021/12/14 05:28:29;;;;;;;21.35;14.68;;;;;;;8.68;79.59;102436.28;3567460;40;20059;-66
2021/12/14 05:30:58;;;;;;;22.40;15.65;;;;;;;8.67;79.84;102439.91;3568437;40;20061;-65
2021/12/14 05:33:32;;;;;;;18.67;14.40;;;;;;;8.64;79.63;102440.84;3569091;40;21444;-65
2021/12/14 05:36:07;;;;;;;20.98;15.25;;;;;;;8.65;79.38;102439.94;3560619;40;20068;-63
2021/12/14 05:43:05;;;;;;;22.05;15.60;;;;;;;8.53;79.86;102417.03;3569406;40;20302;-65
2021/12/14 05:43:55;;;;;;;21.73;15.88;;;;;;;8.64;79.74;102423.91;3565746;40;20056;-66
2021/12/14 05:46:24;;;;;;;24.85;16.73;;;;;;;8.64;80.26;102437.31;3569056;40;20049;-65
2021/12/14 05:49:05;;;;;;;21.80;16.65;;;;;;;8.60;79.96;102440.06;3568192;40;20064;-64
2021/12/14 05:51:32;;;;;;;22.23;16.67;;;;;;;8.60;80.43;102441.88;3570035;40;20061;-64
2021/12/14 05:54:00;;;;;;;23.58;16.80;;;;;;;8.59;80.14;102441.00;3568278;40;20053;-64
2021/12/14 05:56:29;;;;;;;23.30;17.23;;;;;;;8.38;79.89;102409.41;3566292;40;20089;-64
2021/12/14 05:58:58;;;;;;;23.15;17.08;;;;;;;8.62;80.34;102449.84;3565949;40;20057;-65
2021/12/14 06:01:30;;;;;;;23.23;17.55;;;;;;;8.62;80.25;102447.19;3565218;40;20399;-64
2021/12/14 06:04:04;;;;;;;23.83;17.73;;;;;;;8.60;80.17;102449.91;3569350;40;20048;-65
2021/12/14 06:06:42;;;;;;;21.20;16.48;;;;;;;8.43;79.88;102426.22;3565435;40;20053;-64
2021/12/14 06:09:28;;;;;;;23.67;17.35;;;;;;;8.59;79.74;102465.13;3567618;40;20060;-66
2021/12/14 06:12:19;;;;;;;22.98;17.13;;;;;;;8.63;80.35;102465.00;3565900;40;20064;-65
2021/12/14 06:14:55;;;;;;;22.67;17.15;;;;;;;8.60;79.63;102466.00;3566381;40;20144;-65
2021/12/14 06:17:33;;;;;;;25.17;18.35;;;;;;;8.58;79.72;102468.69;3573220;40;20059;-64
2021/12/14 06:20:13;;;;;;;24.33;17.67;;;;;;;8.57;80.33;102472.31;3568258;40;20124;-64
2021/12/14 06:22:42;;;;;;;24.10;17.70;;;;;;;8.55;79.71;102466.09;3572197;40;20060;-65
2021/12/14 06:25:18;;;;;;;24.77;18.15;;;;;;;8.58;79.64;102478.56;3570282;40;20061;-66
2021/12/14 06:27:47;;;;;;;25.83;17.52;;;;;;;8.54;80.09;102467.03;3569964;40;20061;-64
2021/12/14 06:30:20;;;;;;;24.88;18.83;;;;;;;8.59;79.97;102474.94;3568364;40;20318;-64
2021/12/14 06:32:56;;;;;;;26.40;18.95;;;;;;;8.53;79.87;102465.28;3568049;40;20061;-65
2021/12/14 06:35:32;;;;;;;27.10;19.35;;;;;;;8.59;79.79;102469.56;3572875;40;20142;-65
2021/12/14 06:38:29;;;;;;;27.45;19.27;;;;;;;8.60;79.75;102471.38;3568887;40;20065;-64
2021/12/14 06:41:10;;;;;;;26.75;18.58;;;;;;;8.59;80.54;102464.22;3572031;40;20053;-65
2021/12/14 06:43:57;;;;;;;26.63;19.02;;;;;;;8.56;80.29;102481.28;3568653;40;20418;-67
2021/12/14 06:46:38;;;;;;;29.15;20.95;;;;;;;8.57;80.49;102480.34;3566914;40;20329;-66
2021/12/14 06:49:13;;;;;;;26.95;18.90;;;;;;;8.58;80.60;102487.47;3567399;40;20373;-64
2021/12/14 06:51:48;;;;;;;30.25;20.02;;;;;;;8.58;80.67;102479.44;3569502;40;20119;-65
2021/12/14 06:54:24;;;;;;;27.98;20.05;;;;;;;8.57;79.98;102482.16;3571997;40;20052;-64
2021/12/14 06:56:57;;;;;;;26.73;19.70;;;;;;;8.56;80.59;102491.09;3568284;40;20075;-64
2021/12/14 06:59:23;;;;;;;26.38;19.35;;;;;;;8.56;80.73;102486.66;3569218;40;20049;-65
2021/12/14 07:02:05;;;;;;;26.70;18.90;;;;;;;8.56;79.91;102496.47;3567518;40;20696;-65
2021/12/14 07:04:39;;;;;;;28.55;20.83;;;;;;;8.54;79.98;102499.19;3566372;40;20053;-64
2021/12/14 07:07:12;;;;;;;30.25;20.00;;;;;;;8.37;80.32;102470.16;3569559;40;20052;-66
2021/12/14 07:09:51;;;;;;;28.73;20.27;;;;;;;8.58;80.06;102500.00;3567206;40;20059;-64
2021/12/14 07:12:27;;;;;;;31.25;20.77;;;;;;;8.50;80.38;102488.59;3568922;40;20086;-64
2021/12/14 07:14:53;;;;;;;28.92;20.45;;;;;;;8.54;80.50;102504.56;3565510;40;20065;-65
2021/12/14 07:17:40;;;;;;;28.75;21.30;;;;;;;8.54;80.33;102501.88;3566605;40;20053;-64
2021/12/14 07:20:32;;;;;;;31.30;22.75;;;;;;;8.56;79.92;102505.41;3566833;40;20064;-65
2021/12/14 07:23:03;;;;;;;31.05;21.67;;;;;;;8.57;80.14;102519.69;3568397;40;20053;-66
2021/12/14 07:25:40;;;;;;;31.80;21.98;;;;;;;8.58;80.59;102527.69;3570539;40;20045;-65
2021/12/14 07:28:17;;;;;;;31.98;21.80;;;;;;;8.59;80.19;102529.47;3570913;40;20130;-65
2021/12/14 07:31:01;;;;;;;31.88;21.85;;;;;;;8.61;79.74;102537.44;3570580;40;20045;-64
2021/12/14 07:33:34;;;;;;;28.75;21.20;;;;;;;8.59;80.14;102537.50;3572401;40;20052;-64
2021/12/14 07:36:20;;;;;;;32.03;21.63;;;;;;;8.59;80.27;102534.81;3567841;40;20057;-65
2021/12/14 07:38:51;;;;;;;29.25;20.60;;;;;;;8.59;80.56;102545.53;3570501;40;20120;-66
2021/12/14 07:41:40;;;;;;;30.63;21.55;;;;;;;8.62;80.63;102538.31;3571706;40;20048;-65
2021/12/14 07:44:30;;;;;;;31.33;22.38;;;;;;;8.62;79.77;102533.84;3568059;40;20061;-65
2021/12/14 07:47:04;;;;;;;36.50;23.02;;;;;;;8.60;79.91;102536.56;3568104;40;20084;-64
2021/12/14 07:49:41;;;;;;;31.15;21.75;;;;;;;8.56;80.06;102534.91;3565737;40;20399;-64
2021/12/14 07:52:15;;;;;;;32.78;22.35;;;;;;;8.62;80.29;102551.72;3569658;40;20048;-66
2021/12/14 07:54:51;;;;;;;33.30;22.50;;;;;;;8.63;80.00;102553.47;3566410;40;20072;-65
2021/12/14 07:57:23;;;;;;;31.77;21.52;;;;;;;8.63;80.71;102561.50;3569486;40;20077;-64
2021/12/14 08:00:05;;;;;;;30.20;21.27;;;;;;;8.65;80.64;102565.03;3565718;40;20098;-65
2021/12/14 08:02:40;;;;;;;31.70;22.63;;;;;;;8.65;80.61;102570.41;3568715;40;20060;-65
2021/12/14 08:05:17;;;;;;;34.28;23.15;;;;;;;8.63;79.72;102572.25;3566267;40;20092;-65
2021/12/14 08:07:56;;;;;;;30.73;21.70;;;;;;;8.65;80.30;102568.59;3565397;40;20065;-66
2021/12/14 08:10:33;;;;;;;32.63;22.05;;;;;;;8.67;80.26;102574.81;3565595;40;20079;-65
2021/12/14 08:13:13;;;;;;;32.17;22.77;;;;;;;8.45;79.81;102536.09;3567965;40;20053;-64
2021/12/14 08:15:49;;;;;;;31.55;21.77;;;;;;;8.67;79.69;102564.09;3565185;40;20087;-65
2021/12/14 08:18:24;;;;;;;34.50;23.15;;;;;;;8.63;80.22;102561.50;3566418;40;20063;-64
2021/12/14 08:20:58;;;;;;;32.30;21.95;;;;;;;8.70;80.21;102571.19;3566484;40;20088;-66
2021/12/14 08:23:36;;;;;;;33.38;23.02;;;;;;;8.72;80.01;102577.38;3569023;40;20085;-65
2021/12/14 08:26:26;;;;;;;36.35;23.75;;;;;;;8.70;79.97;102571.19;3572505;40;20387;-65
2021/12/14 08:29:02;;;;;;;30.42;22.63;;;;;;;8.72;79.55;102572.00;3567419;40;20345;-66
2021/12/14 08:32:12;;;;;;;33.70;22.92;;;;;;;8.71;79.67;102576.50;3566849;40;20060;-65
2021/12/14 08:34:45;;;;;;;32.72;22.35;;;;;;;8.74;79.60;102578.22;3568315;40;20064;-65
2021/12/14 08:37:25;;;;;;;33.08;22.63;;;;;;;8.75;80.29;102579.97;3568056;40;20265;-65
2021/12/14 08:40:00;;;;;;;33.55;22.42;;;;;;;8.77;80.34;102580.81;3569861;40;20135;-64
2021/12/14 08:42:48;;;;;;;32.60;23.25;;;;;;;8.75;80.19;102588.00;3565427;40;20045;-65
2021/12/14 08:45:26;;;;;;;34.30;22.98;;;;;;;8.79;80.13;102592.41;3567386;40;20041;-67
2021/12/14 08:48:02;;;;;;;34.30;24.52;;;;;;;8.79;79.78;102582.53;3567305;40;20053;-66
2021/12/14 08:50:37;;;;;;;33.80;22.75;;;;;;;8.60;79.21;102549.97;3568897;40;20400;-65
2021/12/14 08:53:08;;;;;;;33.35;24.40;;;;;;;8.81;79.93;102579.81;3566770;40;20383;-65
2021/12/14 08:55:36;;;;;;;32.65;23.80;;;;;;;8.83;79.81;102581.53;3567091;40;20056;-65
2021/12/14 08:58:05;;;;;;;32.38;23.02;;;;;;;8.77;79.86;102572.78;3571278;40;20292;-65
2021/12/14 09:00:43;;;;;;;34.35;23.63;;;;;;;8.87;79.67;102593.06;3570080;40;20064;-65
2021/12/14 09:03:19;;;;;;;32.55;23.30;;;;;;;8.91;79.39;102597.44;3567694;40;20380;-64
2021/12/14 09:05:50;;;;;;;32.53;24.00;;;;;;;8.92;79.58;102591.16;3569072;40;20143;-64
2021/12/14 09:08:20;;;;;;;34.45;24.02;;;;;;;8.95;79.81;102595.56;3567586;40;20052;-65
2021/12/14 09:10:53;;;;;;;33.58;23.33;;;;;;;8.96;79.42;102602.66;3568687;40;20403;-65
2021/12/14 09:13:20;;;;;;;36.65;24.08;;;;;;;8.99;79.00;102598.09;3567604;40;20056;-64
2021/12/14 09:16:04;;;;;;;36.33;24.38;;;;;;;9.04;79.64;102593.50;3565730;40;20111;-65
2021/12/14 09:18:37;;;;;;;34.50;23.65;;;;;;;9.11;78.83;102596.91;3569607;40;20395;-67
2021/12/14 09:21:12;;;;;;;34.30;25.05;;;;;;;9.15;78.53;102597.69;3569695;40;20093;-65
2021/12/14 09:23:45;;;;;;;32.55;23.65;;;;;;;9.16;78.14;102594.06;3568314;40;20053;-65
2021/12/14 09:26:20;;;;;;;33.77;24.37;;;;;;;9.23;78.56;102601.06;3569107;40;20107;-65
2021/12/14 09:28:48;;;;;;;32.85;24.00;;;;;;;9.29;78.71;102608.91;3568894;40;20061;-65
2021/12/14 09:31:21;;;;;;;38.22;25.50;;;;;;;9.30;78.60;102608.00;3628488;23;20056;-65
2021/12/14 09:33:48;;;;;;;;;;;;;;;9.33;77.81;102604.34;3583156;40;20180;-65
2021/12/14 09:36:15;;;;;;;36.15;24.10;;;;;;;9.35;78.48;102605.19;3582840;40;20008;-64
2021/12/14 09:39:13;;;;;;;35.33;23.13;;;;;;;9.39;78.05;102607.75;3580580;40;20041;-65
2021/12/14 09:41:43;;;;;;;36.17;24.80;;;;;;;9.41;77.52;102603.19;3583276;40;20060;-65
2021/12/14 09:44:16;;;;;;;33.75;23.65;;;;;;;9.46;77.98;102601.28;3580895;40;20125;-65
2021/12/14 09:46:43;;;;;;;36.13;24.40;;;;;;;9.44;78.02;102596.88;3580462;40;20432;-65
2021/12/14 09:49:11;;;;;;;35.35;23.88;;;;;;;9.43;77.84;102598.69;3579260;40;20438;-65
2021/12/14 09:52:02;;;;;;;36.53;24.25;;;;;;;9.50;78.02;102592.19;3579206;40;20411;-65
2021/12/14 09:54:30;;;;;;;39.22;25.38;;;;;;;9.50;77.29;102584.16;3577862;40;20068;-65
2021/12/14 09:57:14;;;;;;;35.38;25.00;;;;;;;9.47;77.61;102578.88;3575611;40;20060;-66
2021/12/14 09:59:41;;;;;;;35.50;25.15;;;;;;;9.47;77.61;102578.88;3576776;40;20060;-65
2021/12/14 10:02:17;;;;;;;36.15;24.70;;;;;;;9.21;77.95;102528.63;3578297;40;20059;-65
2021/12/14 10:05:01;;;;;;;34.33;23.88;;;;;;;9.52;77.28;102576.94;3578859;40;20136;-68
2021/12/14 10:07:27;;;;;;;53.15;35.35;;;;;;;9.57;77.97;102579.47;3580291;40;20066;-65
2021/12/14 10:10:00;;;;;;;36.85;24.98;;;;;;;9.61;77.67;102580.25;3579118;40;20048;-65
2021/12/14 10:12:51;;;;;;;37.13;24.75;;;;;;;9.63;77.09;102565.88;3581016;40;20368;-65
2021/12/14 10:15:36;;;;;;;34.00;23.25;;;;;;;9.75;77.45;102572.69;3578934;40;20055;-65
2021/12/14 10:18:21;;;;;;;34.75;23.88;;;;;;;9.84;77.20;102585.84;3578109;40;20064;-65
2021/12/14 10:20:52;;;;;;;38.08;24.55;;;;;;;9.82;76.33;102584.13;3581696;40;20145;-65
2021/12/14 10:23:20;;;;;;;35.83;25.27;;;;;;;9.90;76.35;102591.03;3580799;40;20044;-65
2021/12/14 10:25:46;;;;;;;34.20;24.40;;;;;;;9.93;76.74;102598.13;3582514;40;20048;-64
2021/12/14 10:28:14;;;;;;;34.00;24.60;;;;;;;9.66;76.92;102541.59;3584691;40;20083;-64
2021/12/14 10:30:56;;;;;;;36.22;24.00;;;;;;;9.98;76.74;102586.28;3582407;40;20657;-64
2021/12/14 10:33:27;;;;;;;36.03;24.65;;;;;;;9.97;76.56;102592.59;3579183;40;20063;-64
2021/12/14 10:36:03;;;;;;;34.92;24.50;;;;;;;9.97;75.89;102584.53;3582134;40;20067;-65
2021/12/14 10:38:50;;;;;;;33.97;23.83;;;;;;;9.98;75.97;102591.66;3583471;40;20051;-65
2021/12/14 10:44:05;;;;;;;40.15;24.58;;;;;;;10.04;76.56;102606.72;3583208;40;20059;-64
2021/12/14 10:46:45;;;;;;;35.90;24.92;;;;;;;10.03;76.60;102607.63;3581681;40;20048;-65
2021/12/14 10:49:15;;;;;;;44.17;25.27;;;;;;;10.06;76.65;102609.38;3584331;40;20597;-64
2021/12/14 10:51:48;;;;;;;38.25;26.30;;;;;;;10.04;76.10;102605.84;3572411;40;20351;-65
2021/12/14 10:54:19;;;;;;;35.70;25.05;;;;;;;10.05;76.68;102602.19;3581991;40;20315;-64
2021/12/14 10:57:08;;;;;;;40.80;26.10;;;;;;;10.09;75.79;102590.47;3582261;40;20063;-65
2021/12/14 10:59:41;;;;;;;36.78;25.55;;;;;;;10.08;76.37;102594.06;3586484;40;20052;-65
2021/12/14 11:02:09;;;;;;;37.33;25.80;;;;;;;10.06;76.18;102604.00;3582540;40;20125;-64
2021/12/14 11:04:53;;;;;;;39.03;25.52;;;;;;;9.80;76.08;102545.66;3582024;40;20068;-68
2021/12/14 11:07:37;;;;;;;41.95;27.40;;;;;;;10.03;76.05;102594.22;3585905;40;20079;-65
2021/12/14 11:10:34;;;;;;;37.03;24.58;;;;;;;10.05;76.34;102581.59;3583032;40;20056;-64
2021/12/14 11:13:09;;;;;;;36.97;25.35;;;;;;;10.07;76.01;102582.44;3582263;40;20461;-66
2021/12/14 11:15:49;;;;;;;40.15;26.17;;;;;;;10.14;75.94;102591.16;3584527;40;20104;-63
2021/12/14 11:18:23;;;;;;;39.33;26.20;;;;;;;10.16;76.41;102581.25;3570715;40;20048;-64
2021/12/14 11:21:07;;;;;;;37.75;25.73;;;;;;;10.17;76.44;102574.94;3580469;40;20092;-64
2021/12/14 11:23:38;;;;;;;37.53;26.58;;;;;;;10.31;76.33;102570.06;3584029;40;20052;-64
2021/12/14 11:26:15;;;;;;;40.40;26.95;;;;;;;10.38;75.88;102574.28;3583309;40;20120;-64
2021/12/14 11:28:51;;;;;;;36.42;26.15;;;;;;;10.37;74.82;102564.47;3584019;40;20060;-64
2021/12/14 11:31:37;;;;;;;40.10;25.63;;;;;;;10.23;75.22;102545.19;3584452;40;20071;-64
2021/12/14 11:34:12;;;;;;;38.78;26.65;;;;;;;10.40;75.93;102556.31;3583009;40;20052;-64
2021/12/14 11:36:45;;;;;;;38.38;26.00;;;;;;;10.47;75.32;102561.50;3583358;40;20056;-66
2021/12/14 11:39:25;;;;;;;38.03;25.47;;;;;;;10.52;74.82;102560.38;3585541;40;20064;-64
2021/12/14 11:42:03;;;;;;;38.03;26.45;;;;;;;10.51;75.29;102557.75;3580829;40;20052;-65
2021/12/14 11:44:53;;;;;;;37.95;27.15;;;;;;;10.47;75.74;102556.97;3581688;40;20082;-65
2021/12/14 11:50:14;;;;;;;36.45;26.67;;;;;;;10.54;75.88;102558.53;3581483;40;20059;-65
2021/12/14 11:53:11;;;;;;;36.45;25.88;;;;;;;10.54;75.59;102560.34;3583371;40;20076;-65
2021/12/14 11:55:59;;;;;;;37.60;25.65;;;;;;;10.56;75.67;102566.53;3583764;40;20356;-64
2021/12/14 11:58:43;;;;;;;41.22;27.35;;;;;;;10.55;75.49;102554.91;3584011;40;20053;-65
2021/12/14 12:01:40;;;;;;;40.95;28.17;;;;;;;10.33;75.73;102527.84;3584682;40;20094;-65
2021/12/14 12:04:23;;;;;;;40.65;28.75;;;;;;;10.52;75.50;102554.13;3581361;40;20068;-64
2021/12/14 12:09:48;;;;;;;40.47;27.15;;;;;;;10.32;75.60;102526.09;3580142;40;20048;-64
2021/12/14 12:12:42;;;;;;;41.20;27.92;;;;;;;10.50;75.93;102564.03;3583470;40;20298;-65
2021/12/14 12:15:21;;;;;;;42.08;28.67;;;;;;;10.47;75.90;102556.97;3581656;40;20044;-64
2021/12/14 12:18:01;;;;;;;41.20;27.70;;;;;;;10.50;76.09;102561.34;3583554;40;20056;-65
2021/12/14 12:20:40;;;;;;;42.10;26.75;;;;;;;10.50;75.83;102556.88;3582495;40;20052;-65
2021/12/14 12:23:14;;;;;;;41.15;28.70;;;;;;;10.53;76.01;102564.84;3583374;40;20322;-65
2021/12/14 12:25:46;;;;;;;40.80;28.45;;;;;;;10.43;76.25;102548.16;3582119;40;20052;-65
2021/12/14 12:28:31;;;;;;;44.20;28.30;;;;;;;10.51;76.19;102565.81;3581386;40;20052;-65
2021/12/14 12:31:14;;;;;;;48.88;29.23;;;;;;;10.51;76.05;102568.50;3582453;40;20060;-66
2021/12/14 12:33:46;;;;;;;45.78;28.73;;;;;;;10.43;76.10;102556.22;3581784;40;20062;-64